Time;durP1;ratioP1;P1;durP2;ratioP2;P2;SDS_P1;SDS_P2;PMS_P1;PMS_P2;Temp;Humidity;BMP_temperature;BMP_pressure;BME280_temperature;BME280_humidity;BME280_pressure;Samples;Min_cycle;Max_cycle;Signal;HPM_P1;HPM_P2
2021/01/07 00:00:24;;;;;;;36.80;19.80;;;;;;;0.08;82.08;101630.50;4981511;28;20114;-52
2021/01/07 00:02:50;;;;;;;31.63;18.95;;;;;;;0.06;82.34;101636.19;4981038;28;20043;-50
2021/01/07 00:05:16;;;;;;;34.13;18.35;;;;;;;0.04;82.28;101635.63;4981630;28;20054;-51
2021/01/07 00:07:43;;;;;;;33.78;18.75;;;;;;;0.05;82.38;101629.09;4976048;28;20469;-49
2021/01/07 00:10:11;;;;;;;33.45;18.73;;;;;;;0.02;82.30;101626.88;4997531;28;20050;-50
2021/01/07 00:12:37;;;;;;;37.08;20.30;;;;;;;0.02;82.16;101621.44;4983174;28;20106;-49
2021/01/07 00:15:06;;;;;;;36.83;20.13;;;;;;;0.00;82.49;101620.88;4979715;28;20482;-52
2021/01/07 00:17:32;;;;;;;42.05;21.48;;;;;;;-0.01;82.44;101617.34;4983841;28;20493;-48
2021/01/07 00:19:58;;;;;;;41.55;20.02;;;;;;;-0.03;82.46;101621.38;4978969;28;20073;-52
2021/01/07 00:22:25;;;;;;;31.83;18.33;;;;;;;-0.06;82.59;101616.44;4979599;28;20037;-52
2021/01/07 00:24:54;;;;;;;33.40;18.30;;;;;;;-0.05;82.48;101612.63;4977280;28;20127;-51
2021/01/07 00:27:20;;;;;;;25.90;16.80;;;;;;;-0.04;82.33;101612.41;4959490;28;20449;-57
2021/01/07 00:29:46;;;;;;;32.70;18.17;;;;;;;-0.07;82.46;101591.13;4990443;28;20117;-51
2021/01/07 00:32:13;;;;;;;23.88;15.52;;;;;;;-0.05;nan;101604.47;4979051;28;20061;-53
2021/01/07 00:34:39;;;;;;;31.83;16.25;;;;;;;-0.06;82.33;101603.66;4974065;28;20045;-51
2021/01/07 00:37:06;;;;;;;26.92;15.45;;;;;;;-0.06;82.29;101594.69;4982929;28;20050;-48
2021/01/07 00:39:32;;;;;;;29.35;16.88;;;;;;;-0.07;82.20;101591.13;4961193;28;20051;-52
2021/01/07 00:41:59;;;;;;;25.23;15.50;;;;;;;-0.05;82.39;101588.13;4971780;28;20043;-55
2021/01/07 00:44:27;;;;;;;28.45;15.85;;;;;;;-0.08;82.28;101594.13;4966286;28;20568;-53
2021/01/07 00:46:53;;;;;;;27.45;15.63;;;;;;;-0.10;82.32;101594.34;4970527;28;20043;-55
2021/01/07 00:49:20;;;;;;;29.23;15.27;;;;;;;-0.13;82.40;101596.75;4976775;28;20046;-51
2021/01/07 00:51:46;;;;;;;24.17;14.13;;;;;;;-0.17;82.44;101595.63;4970440;28;20150;-52
2021/01/07 00:54:13;;;;;;;30.63;14.02;;;;;;;-0.15;82.58;101585.28;4975085;28;20053;-50
2021/01/07 00:56:39;;;;;;;20.50;12.98;;;;;;;-0.17;82.48;101582.84;4970297;28;20043;-50
2021/01/07 00:59:07;;;;;;;21.83;14.43;;;;;;;-0.18;82.51;101588.53;4980207;28;20077;-48
2021/01/07 01:01:45;;;;;;;26.05;13.70;;;;;;;-0.21;82.73;101589.84;4993490;28;20050;-54
2021/01/07 01:04:14;;;;;;;23.55;13.88;;;;;;;-0.19;82.56;101581.44;4984028;28;20046;-52
2021/01/07 01:06:40;;;;;;;25.25;15.23;;;;;;;-0.22;82.63;101577.34;4992083;28;20496;-51
2021/01/07 01:09:09;;;;;;;22.35;13.40;;;;;;;-0.22;82.78;101571.06;4978861;28;20129;-54
2021/01/07 01:11:43;;;;;;;26.60;13.50;;;;;;;-0.23;82.75;101572.97;4988594;28;20125;-49
2021/01/07 01:14:11;;;;;;;25.58;15.07;;;;;;;-0.25;82.74;101574.28;4976475;28;20078;-50
2021/01/07 01:16:37;;;;;;;23.67;14.77;;;;;;;-0.26;82.78;101575.34;4975276;28;20043;-49
2021/01/07 01:19:05;;;;;;;24.15;14.43;;;;;;;-0.25;82.83;101571.56;4984397;28;20105;-53
2021/01/07 01:21:32;;;;;;;21.83;13.23;;;;;;;-0.25;82.53;101566.13;4976837;28;20512;-53
2021/01/07 01:23:59;;;;;;;25.92;13.68;;;;;;;-0.29;82.89;101565.00;4987557;28;20519;-51
2021/01/07 01:26:26;;;;;;;28.60;14.40;;;;;;;-0.28;82.80;101569.34;4965890;28;20456;-55
2021/01/07 01:28:52;;;;;;;31.00;16.92;;;;;;;-0.30;82.86;101563.34;4984168;28;20439;-50
2021/01/07 01:31:18;;;;;;;21.08;14.68;;;;;;;-0.32;82.91;101560.06;4959160;28;20047;-49
2021/01/07 01:33:44;;;;;;;26.13;13.07;;;;;;;-0.32;82.90;101560.88;4979260;28;20038;-53
2021/01/07 01:36:11;;;;;;;24.45;15.48;;;;;;;-0.32;83.06;101558.16;4972993;28;20039;-51
2021/01/07 01:38:38;;;;;;;26.35;14.02;;;;;;;-0.33;83.03;101558.41;4978166;28;20365;-52
2021/01/07 01:41:05;;;;;;;25.95;14.10;;;;;;;-0.36;82.68;101557.03;4980208;28;20074;-50
2021/01/07 01:43:34;;;;;;;26.00;13.95;;;;;;;-0.38;82.92;101558.34;4984789;28;20050;-52
2021/01/07 01:46:00;;;;;;;26.33;15.40;;;;;;;-0.38;82.76;101550.19;4977777;28;20038;-49
2021/01/07 01:48:30;;;;;;;23.08;12.73;;;;;;;-0.37;82.85;101555.38;4992250;28;20133;-52
2021/01/07 01:50:58;;;;;;;24.58;12.60;;;;;;;-0.41;82.84;101547.97;4984317;28;20098;-51
2021/01/07 01:53:24;;;;;;;30.27;15.45;;;;;;;-0.39;82.83;101559.41;4974711;28;20054;-53
2021/01/07 01:55:51;;;;;;;24.25;13.95;;;;;;;-0.39;82.55;101552.09;4968581;28;20496;-52
2021/01/07 01:58:18;;;;;;;26.40;13.55;;;;;;;-0.41;82.78;101551.53;4984771;28;20096;-48
2021/01/07 02:00:44;;;;;;;23.42;13.88;;;;;;;-0.44;82.92;101548.47;4984914;28;20077;-50
2021/01/07 02:03:11;;;;;;;29.52;15.07;;;;;;;-0.44;83.08;101553.91;4974656;28;20460;-52
2021/01/07 02:05:40;;;;;;;24.05;13.80;;;;;;;-0.45;82.72;101544.94;4984197;28;20046;-48
2021/01/07 02:08:09;;;;;;;26.23;15.30;;;;;;;-0.47;82.98;101549.81;4986301;28;20133;-51
2021/01/07 02:10:36;;;;;;;22.75;13.18;;;;;;;-0.49;82.94;101551.13;4990532;28;20061;-53
2021/01/07 02:13:04;;;;;;;29.88;15.57;;;;;;;-0.48;82.80;101548.19;4983445;28;20038;-51
2021/01/07 02:15:39;;;;;;;26.95;15.82;;;;;;;-0.48;82.90;101552.78;4974205;28;20770;-49
2021/01/07 02:18:09;;;;;;;31.55;15.38;;;;;;;-0.48;82.84;101553.63;4977529;28;20094;-53
2021/01/07 02:20:37;;;;;;;33.85;15.40;;;;;;;-0.48;83.06;101550.91;4976548;28;20117;-52
2021/01/07 02:23:05;;;;;;;29.63;15.45;;;;;;;-0.47;82.97;101551.69;4974006;28;20512;-50
2021/01/07 02:25:32;;;;;;;28.05;15.10;;;;;;;-0.50;82.75;101547.59;4973276;28;20046;-55
2021/01/07 02:27:58;;;;;;;22.88;13.40;;;;;;;-0.49;83.22;101542.97;4987358;28;20046;-54
2021/01/07 02:30:25;;;;;;;28.35;15.30;;;;;;;-0.46;83.23;101550.63;4982440;28;20097;-52
2021/01/07 02:32:51;;;;;;;26.77;14.30;;;;;;;-0.46;82.95;101543.31;4974681;28;20046;-53
2021/01/07 02:35:20;;;;;;;17.25;11.73;;;;;;;-0.47;83.01;101540.81;4973527;28;20161;-49
2021/01/07 02:37:47;;;;;;;23.02;12.95;;;;;;;-0.47;83.01;101538.09;4956639;28;20130;-48
2021/01/07 02:40:15;;;;;;;23.67;12.60;;;;;;;-0.46;83.15;101526.16;4979107;28;20058;-52
2021/01/07 02:42:41;;;;;;;22.70;13.95;;;;;;;-0.45;83.02;101535.97;4974695;28;20185;-53
2021/01/07 02:45:09;;;;;;;22.55;13.25;;;;;;;-0.45;82.85;101536.75;4982214;28;20129;-53
2021/01/07 02:47:39;;;;;;;24.80;11.65;;;;;;;-0.43;83.01;101531.09;4978390;28;20101;-50
2021/01/07 02:50:07;;;;;;;18.00;11.02;;;;;;;-0.44;83.35;101530.25;4974684;28;20118;-54
2021/01/07 02:52:33;;;;;;;25.45;12.23;;;;;;;-0.43;83.20;101531.09;4973358;28;20039;-50
2021/01/07 02:55:00;;;;;;;21.00;12.73;;;;;;;-0.42;83.13;101530.00;4980620;28;20077;-51
2021/01/07 02:57:27;;;;;;;24.73;10.55;;;;;;;-0.40;83.43;101527.88;4988015;28;20125;-49
2021/01/07 02:59:53;;;;;;;17.70;10.63;;;;;;;-0.39;82.99;101508.56;4986118;28;20046;-50
2021/01/07 03:02:19;;;;;;;21.25;11.40;;;;;;;-0.40;83.10;101509.66;4978053;28;20043;-49
2021/01/07 03:04:46;;;;;;;23.20;11.48;;;;;;;-0.42;83.25;101522.66;4973118;28;20043;-50
2021/01/07 03:07:13;;;;;;;21.08;11.10;;;;;;;-0.40;83.47;101511.53;4961016;28;20078;-50
2021/01/07 03:09:42;;;;;;;18.40;10.55;;;;;;;-0.39;83.26;101510.44;4993885;28;20117;-52
2021/01/07 03:12:16;;;;;;;20.10;11.68;;;;;;;-0.38;83.29;101517.53;4974970;28;20397;-53
2021/01/07 03:14:44;;;;;;;23.67;11.80;;;;;;;-0.36;83.23;101507.22;4976118;28;20086;-52
2021/01/07 03:17:12;;;;;;;20.00;12.02;;;;;;;-0.36;83.36;101510.78;4955718;28;20070;-49
2021/01/07 03:19:38;;;;;;;28.83;13.90;;;;;;;-0.36;82.79;101509.94;4971482;28;20035;-49
2021/01/07 03:22:05;;;;;;;23.45;13.25;;;;;;;-0.34;83.10;101513.22;4972553;28;20051;-52
2021/01/07 03:24:32;;;;;;;25.55;12.95;;;;;;;-0.32;83.22;101511.09;4980144;28;20081;-49
2021/01/07 03:26:58;;;;;;;23.08;12.48;;;;;;;-0.35;82.95;101504.28;4970810;28;20172;-49
2021/01/07 03:29:26;;;;;;;29.67;14.02;;;;;;;-0.37;82.81;101500.97;4991955;28;20104;-51
2021/01/07 03:31:52;;;;;;;21.77;11.27;;;;;;;-0.38;83.19;101499.34;4964971;28;20070;-51
2021/01/07 03:34:18;;;;;;;18.52;11.02;;;;;;;-0.38;83.29;101495.78;4980519;28;20682;-53
2021/01/07 03:36:45;;;;;;;20.98;11.75;;;;;;;-0.36;83.06;101493.63;4975260;28;20449;-52
2021/01/07 03:39:12;;;;;;;24.23;11.68;;;;;;;-0.35;83.27;101489.84;4955533;28;20050;-49
2021/01/07 03:41:38;;;;;;;27.58;14.77;;;;;;;-0.35;83.13;101487.94;4985705;28;20046;-49
2021/01/07 03:44:05;;;;;;;23.83;11.75;;;;;;;-0.36;83.36;101483.56;4979364;28;20100;-52
2021/01/07 03:46:32;;;;;;;28.50;13.88;;;;;;;-0.33;83.42;101476.78;4983709;28;20125;-50
2021/01/07 03:48:58;;;;;;;27.13;14.52;;;;;;;-0.34;83.11;101480.59;4987917;28;20382;-52
2021/01/07 03:51:24;;;;;;;24.98;12.85;;;;;;;-0.33;83.24;101474.06;4981338;28;20082;-51
2021/01/07 03:53:50;;;;;;;19.10;11.35;;;;;;;-0.33;83.48;101474.91;4985775;28;20129;-52
2021/01/07 03:56:17;;;;;;;26.80;11.50;;;;;;;-0.30;83.31;101471.69;4972712;28;20070;-51
2021/01/07 03:58:43;;;;;;;24.15;11.02;;;;;;;-0.28;83.34;101464.06;4984751;28;20121;-55
2021/01/07 04:01:09;;;;;;;15.88;9.55;;;;;;;-0.28;83.26;101465.97;4980431;28;20038;-50
2021/01/07 04:03:36;;;;;;;18.60;11.68;;;;;;;-0.25;83.30;101462.75;4972731;28;20126;-52
2021/01/07 04:06:02;;;;;;;15.88;9.68;;;;;;;-0.24;83.36;101464.41;4970711;28;20046;-52
2021/01/07 04:08:29;;;;;;;16.15;9.80;;;;;;;-0.25;83.56;101455.41;4991861;28;20042;-49
2021/01/07 04:10:55;;;;;;;15.20;8.95;;;;;;;-0.23;83.34;101460.56;4965018;28;20049;-52
2021/01/07 04:13:22;;;;;;;19.55;9.52;;;;;;;-0.24;83.49;101459.75;4973142;28;20445;-49
2021/01/07 04:15:48;;;;;;;15.48;8.93;;;;;;;-0.24;83.59;101462.47;4972380;28;20122;-50
2021/01/07 04:18:15;;;;;;;13.00;7.80;;;;;;;-0.26;83.58;101470.06;4954897;28;20051;-53
2021/01/07 04:20:41;;;;;;;14.27;8.40;;;;;;;-0.23;83.64;101460.56;4980568;28;20126;-50
2021/01/07 04:23:07;;;;;;;17.52;9.80;;;;;;;-0.20;83.53;101457.34;4958921;28;20054;-50
2021/01/07 04:25:33;;;;;;;11.55;7.45;;;;;;;-0.19;83.36;101461.72;4972023;28;20043;-50
2021/01/07 04:28:00;;;;;;;15.93;7.97;;;;;;;-0.18;83.24;101466.06;4971582;28;20027;-49
2021/01/07 04:30:26;;;;;;;17.55;8.98;;;;;;;-0.19;83.12;101451.66;4991039;28;20505;-49
2021/01/07 04:32:52;;;;;;;19.15;8.13;;;;;;;-0.19;83.37;101456.28;4968978;28;20138;-50
2021/01/07 04:35:19;;;;;;;12.30;6.80;;;;;;;-0.17;83.42;101454.13;4974620;28;20071;-49
2021/01/07 04:37:45;;;;;;;13.73;7.15;;;;;;;-0.15;83.25;101468.28;4978398;28;20047;-50
2021/01/07 04:40:12;;;;;;;10.32;6.90;;;;;;;-0.14;83.22;101459.06;4982233;28;20124;-50
2021/01/07 04:42:39;;;;;;;14.98;7.90;;;;;;;-0.12;83.23;101446.84;4993407;28;20043;-50
2021/01/07 04:45:06;;;;;;;13.80;7.65;;;;;;;-0.11;83.38;101458.53;4979911;28;20110;-51
2021/01/07 04:47:32;;;;;;;13.82;7.38;;;;;;;-0.09;83.26;101453.66;4975712;28;20131;-48
2021/01/07 04:50:00;;;;;;;11.02;6.72;;;;;;;-0.09;83.02;101462.66;4974603;28;20445;-51
2021/01/07 04:52:26;;;;;;;13.52;7.43;;;;;;;-0.06;83.10;101453.16;4974551;28;20049;-49
2021/01/07 04:54:54;;;;;;;11.13;6.97;;;;;;;-0.04;83.12;101449.09;4983223;28;20038;-48
2021/01/07 04:57:20;;;;;;;12.10;7.40;;;;;;;-0.01;83.50;101450.47;4976116;28;20045;-49
2021/01/07 04:59:47;;;;;;;11.63;6.70;;;;;;;0.00;83.18;101438.50;4959673;28;20453;-48
2021/01/07 05:02:14;;;;;;;12.98;6.72;;;;;;;0.03;83.37;101443.41;4961063;28;20066;-50
2021/01/07 05:04:51;;;;;;;12.07;7.60;;;;;;;0.02;82.88;101440.97;4960497;28;20057;-51
2021/01/07 05:07:19;;;;;;;11.68;6.82;;;;;;;0.02;82.99;101436.34;4994442;28;20043;-48
2021/01/07 05:09:46;;;;;;;9.85;6.03;;;;;;;0.03;83.15;101435.25;4982156;28;20084;-48
2021/01/07 05:12:13;;;;;;;12.27;5.50;;;;;;;0.03;83.12;101432.53;4992079;28;20070;-51
2021/01/07 05:14:49;;;;;;;12.07;6.35;;;;;;;0.03;82.87;101432.53;4957582;28;20065;-48
2021/01/07 05:17:16;;;;;;;10.13;5.75;;;;;;;0.04;83.10;101428.75;4973299;28;20047;-49
2021/01/07 05:19:42;;;;;;;10.75;6.03;;;;;;;0.05;82.97;101430.38;4976747;28;20042;-48
2021/01/07 05:22:09;;;;;;;10.02;5.65;;;;;;;0.06;83.02;101425.75;4976046;28;20058;-50
2021/01/07 05:24:39;;;;;;;9.52;6.13;;;;;;;0.05;82.67;101418.69;4986395;28;20055;-50
2021/01/07 05:27:06;;;;;;;11.95;5.75;;;;;;;0.06;82.78;101421.13;4976711;28;20050;-49
2021/01/07 05:29:32;;;;;;;7.72;4.72;;;;;;;0.06;82.95;101423.84;4993239;28;20043;-49
2021/01/07 05:31:58;;;;;;;12.40;5.68;;;;;;;0.05;82.62;101422.22;4993123;28;20078;-50
2021/01/07 05:34:25;;;;;;;8.35;4.97;;;;;;;0.05;82.55;101419.50;4976817;28;20050;-51
2021/01/07 05:37:04;;;;;;;8.35;5.50;;;;;;;0.00;82.47;101427.63;4974673;28;20130;-52
2021/01/07 05:39:34;;;;;;;11.45;5.53;;;;;;;-0.04;82.59;101423.75;4975099;28;20054;-56
2021/01/07 05:42:03;;;;;;;6.47;4.93;;;;;;;-0.07;82.58;101427.81;4977964;28;20086;-54
2021/01/07 05:44:32;;;;;;;7.82;5.13;;;;;;;-0.05;82.59;101425.66;4974720;28;20066;-49
2021/01/07 05:46:59;;;;;;;9.20;5.13;;;;;;;-0.05;82.55;101419.38;4975459;28;20081;-52
2021/01/07 05:49:37;;;;;;;10.68;5.60;;;;;;;-0.03;81.87;101422.69;4983335;28;20043;-55
2021/01/07 05:52:07;;;;;;;8.43;4.63;;;;;;;-0.06;82.39;101409.59;4976621;28;20042;-56
2021/01/07 05:54:33;;;;;;;7.55;5.22;;;;;;;-0.05;82.52;101425.66;4977213;28;20401;-50
2021/01/07 05:57:04;;;;;;;9.73;5.32;;;;;;;-0.03;82.45;101423.50;4988553;28;20161;-52
2021/01/07 05:59:33;;;;;;;9.77;4.78;;;;;;;-0.03;82.42;101406.38;4987848;28;20066;-53
2021/01/07 06:02:04;;;;;;;12.68;5.85;;;;;;;0.00;82.71;101416.75;4984182;28;20043;-51
2021/01/07 06:04:32;;;;;;;11.63;5.45;;;;;;;0.02;82.61;101414.56;4990419;28;20046;-51
2021/01/07 06:07:00;;;;;;;8.68;5.88;;;;;;;0.05;82.82;101413.22;4973033;28;20114;-52
2021/01/07 06:09:29;;;;;;;7.55;5.30;;;;;;;0.07;82.57;101408.34;4992689;28;20041;-48
2021/01/07 06:11:59;;;;;;;8.50;5.22;;;;;;;0.07;82.77;101411.88;4988019;28;20058;-53
2021/01/07 06:14:26;;;;;;;12.10;5.88;;;;;;;0.09;82.67;101411.63;4973089;28;20049;-54
2021/01/07 06:16:56;;;;;;;12.85;6.13;;;;;;;0.09;82.52;101415.16;4973896;28;20046;-53
2021/01/07 06:19:37;;;;;;;11.77;5.63;;;;;;;0.06;82.94;101421.13;4974230;28;20086;-54
2021/01/07 06:22:30;;;;;;;11.38;6.47;;;;;;;0.03;82.92;101410.75;4987569;28;20058;-49
2021/01/07 06:24:58;;;;;;;10.05;5.90;;;;;;;0.04;83.36;101417.84;4970963;28;20055;-53
2021/01/07 06:27:30;;;;;;;10.32;5.60;;;;;;;0.06;83.28;101421.13;4973122;28;20049;-54
2021/01/07 06:30:03;;;;;;;12.93;6.07;;;;;;;0.07;83.03;101422.78;4988116;28;20042;-53
2021/01/07 06:32:30;;;;;;;14.23;6.93;;;;;;;0.09;82.93;101427.94;4973813;28;20076;-50
2021/01/07 06:34:57;;;;;;;11.45;6.40;;;;;;;0.12;83.00;101422.00;4972858;28;20456;-54
2021/01/07 06:37:35;;;;;;;10.75;6.95;;;;;;;0.12;82.71;101420.09;4956936;28;20093;-52
2021/01/07 06:40:06;;;;;;;10.82;6.20;;;;;;;0.11;83.30;101417.66;4977751;28;20045;-55
2021/01/07 06:42:34;;;;;;;8.95;5.03;;;;;;;0.10;83.12;101424.16;4973123;28;20146;-49
2021/01/07 06:45:04;;;;;;;13.90;6.47;;;;;;;0.09;83.42;101423.34;4981016;28;20046;-51
2021/01/07 06:47:31;;;;;;;9.90;6.75;;;;;;;0.10;83.58;101426.88;4981545;28;20191;-54
2021/01/07 06:50:01;;;;;;;10.75;6.22;;;;;;;0.08;83.54;101423.59;4978458;28;20113;-53
2021/01/07 06:52:38;;;;;;;9.80;6.05;;;;;;;0.11;83.71;101428.53;4957634;28;20042;-51
2021/01/07 06:55:09;;;;;;;11.15;5.93;;;;;;;0.10;83.53;101426.88;4992595;28;20094;-54
2021/01/07 06:57:59;;;;;;;11.50;6.43;;;;;;;0.08;83.71;101424.41;4957891;28;20057;-52
2021/01/07 07:00:27;;;;;;;18.88;7.03;;;;;;;0.11;83.67;101428.53;4970111;28;20059;-53
2021/01/07 07:03:04;;;;;;;16.08;7.13;;;;;;;0.09;83.81;101431.50;4971395;28;20046;-49
2021/01/07 07:05:36;;;;;;;11.40;6.00;;;;;;;0.10;83.66;101426.88;4972605;28;20051;-53
2021/01/07 07:08:12;;;;;;;11.43;5.75;;;;;;;0.10;84.08;101435.88;4973390;28;20085;-51
2021/01/07 07:10:39;;;;;;;12.68;6.82;;;;;;;0.12;84.02;101433.72;4985392;28;20082;-53
2021/01/07 07:13:19;;;;;;;13.82;6.28;;;;;;;0.14;84.16;101438.88;4966515;28;20133;-53
2021/01/07 07:15:47;;;;;;;14.10;6.75;;;;;;;0.11;84.07;101429.34;4958113;28;20085;-51
2021/01/07 07:18:34;;;;;;;14.15;6.78;;;;;;;0.10;83.85;101438.59;4972559;28;20142;-54
2021/01/07 07:21:24;;;;;;;9.60;5.93;;;;;;;0.10;83.99;101443.22;4974169;28;20099;-50
2021/01/07 07:23:52;;;;;;;12.27;6.55;;;;;;;0.11;83.96;101432.06;4955580;28;20493;-49
2021/01/07 07:26:33;;;;;;;13.18;8.13;;;;;;;0.13;84.36;101438.09;4973289;28;20053;-52
2021/01/07 07:29:03;;;;;;;12.27;6.60;;;;;;;0.12;84.07;101441.88;4962497;28;20092;-53
2021/01/07 07:31:35;;;;;;;12.13;7.03;;;;;;;0.11;84.49;101434.78;4977236;28;20047;-53
2021/01/07 07:34:03;;;;;;;13.95;6.72;;;;;;;0.11;84.38;101440.22;4956045;28;20051;-52
2021/01/07 07:36:31;;;;;;;14.27;7.57;;;;;;;0.13;84.32;101432.63;4972349;28;20042;-55
2021/01/07 07:38:58;;;;;;;15.43;7.63;;;;;;;0.12;84.51;101439.16;4973000;28;20066;-51
2021/01/07 07:41:27;;;;;;;13.55;6.40;;;;;;;0.08;84.58;101435.28;4973228;28;20102;-51
2021/01/07 07:43:55;;;;;;;11.88;6.72;;;;;;;0.09;84.42;101430.66;4972506;28;20105;-51
2021/01/07 07:46:26;;;;;;;14.30;7.10;;;;;;;0.07;84.47;101432.84;4972915;28;20098;-50
2021/01/07 07:49:03;;;;;;;15.13;6.55;;;;;;;0.07;84.64;101432.84;4972629;28;20050;-48
2021/01/07 07:51:29;;;;;;;9.40;6.00;;;;;;;0.05;84.70;101433.13;4982708;28;20102;-50
2021/01/07 07:54:10;;;;;;;12.00;5.80;;;;;;;0.04;85.20;101433.34;4977145;28;20876;-49
2021/01/07 07:56:38;;;;;;;10.60;6.57;;;;;;;0.06;84.66;101437.47;4975863;28;20516;-52
2021/01/07 07:59:11;;;;;;;11.48;5.60;;;;;;;0.08;84.72;101429.84;4972335;28;20039;-51
2021/01/07 08:01:44;;;;;;;11.38;6.22;;;;;;;0.08;84.50;101437.22;4978338;28;20114;-51
2021/01/07 08:04:14;;;;;;;11.30;6.88;;;;;;;0.07;84.81;101444.56;4988801;28;20046;-51
2021/01/07 08:06:40;;;;;;;14.00;7.45;;;;;;;0.08;84.64;101439.94;4981450;28;20110;-50
2021/01/07 08:09:08;;;;;;;11.70;7.53;;;;;;;0.06;84.71;101447.53;4979825;28;20153;-51
2021/01/07 08:11:49;;;;;;;12.07;7.15;;;;;;;0.04;84.96;101438.78;4982642;28;20069;-52
2021/01/07 08:14:28;;;;;;;13.93;7.13;;;;;;;0.04;84.91;101442.34;4971720;28;20122;-52
2021/01/07 08:16:59;;;;;;;13.93;7.22;;;;;;;0.06;85.34;101453.78;4989381;28;20043;-50
2021/01/07 08:19:32;;;;;;;12.25;6.93;;;;;;;0.04;85.32;101445.06;4991518;28;20086;-52
2021/01/07 08:21:59;;;;;;;10.90;6.93;;;;;;;0.05;85.33;101445.91;4981610;28;20050;-49
2021/01/07 08:24:26;;;;;;;14.45;7.15;;;;;;;0.04;85.39;101452.41;4984225;28;20062;-52
2021/01/07 08:27:16;;;;;;;19.40;7.93;;;;;;;0.04;85.71;101461.41;4972262;28;20078;-51
2021/01/07 08:29:49;;;;;;;12.27;6.88;;;;;;;0.08;85.28;101456.28;4990973;28;20669;-52
2021/01/07 08:32:20;;;;;;;15.98;7.95;;;;;;;0.09;85.33;101458.72;5010972;28;20078;-53
2021/01/07 08:34:46;;;;;;;12.48;8.27;;;;;;;0.10;85.46;101460.38;4981862;28;20046;-55
2021/01/07 08:37:17;;;;;;;14.88;6.80;;;;;;;0.11;85.58;101456.56;4975550;28;20485;-53
2021/01/07 08:39:44;;;;;;;11.07;6.97;;;;;;;0.15;85.54;101457.69;4982195;28;20047;-53
2021/01/07 08:42:14;;;;;;;12.60;7.43;;;;;;;0.18;85.53;101462.63;4957688;28;20043;-53
2021/01/07 08:44:42;;;;;;;11.52;6.22;;;;;;;0.15;85.71;101463.13;4975093;28;20034;-52
2021/01/07 08:47:24;;;;;;;12.07;6.38;;;;;;;0.16;86.14;101458.53;4978189;28;20154;-54
2021/01/07 08:50:08;;;;;;;12.65;7.18;;;;;;;0.16;85.80;101467.50;4984863;28;20050;-51
2021/01/07 08:52:52;;;;;;;10.70;6.70;;;;;;;0.16;85.85;101458.53;4972549;28;20150;-58
2021/01/07 08:55:42;;;;;;;12.60;6.88;;;;;;;0.16;85.72;101470.22;4959339;28;20126;-54
2021/01/07 08:58:26;;;;;;;14.05;6.22;;;;;;;0.14;86.04;101464.22;4981048;28;20069;-59
2021/01/07 09:00:55;;;;;;;14.95;7.43;;;;;;;0.15;85.62;101454.97;4972013;28;20046;-53
2021/01/07 09:03:21;;;;;;;13.57;7.53;;;;;;;0.18;85.80;101461.81;4968721;28;20051;-52
2021/01/07 09:05:47;;;;;;;14.13;6.68;;;;;;;0.18;85.48;101454.47;4970658;28;20065;-47
2021/01/07 09:08:15;;;;;;;10.73;6.72;;;;;;;0.20;85.71;101465.91;4983306;28;20050;-53
2021/01/07 09:10:41;;;;;;;15.57;7.30;;;;;;;0.22;85.75;101465.63;4975785;28;20492;-52
2021/01/07 09:13:35;;;;;;;16.50;7.55;;;;;;;0.23;85.78;101449.06;4985093;28;20054;-54
2021/01/07 09:16:12;;;;;;;13.02;6.88;;;;;;;0.24;85.74;101458.84;4966670;28;20054;-51
2021/01/07 09:18:38;;;;;;;11.15;6.45;;;;;;;0.26;85.91;101472.22;4959108;28;20070;-57
2021/01/07 09:21:14;;;;;;;12.02;6.22;;;;;;;0.26;85.78;101466.78;4969505;28;20055;-53
2021/01/07 09:23:41;;;;;;;12.57;6.60;;;;;;;0.29;85.62;101474.44;4973887;28;20097;-50
2021/01/07 09:26:07;;;;;;;12.18;6.25;;;;;;;0.30;85.61;101471.44;4972274;28;20453;-50
2021/01/07 09:28:37;;;;;;;9.05;5.10;;;;;;;0.27;86.21;101466.50;4953538;28;20568;-53
2021/01/07 09:31:03;;;;;;;10.52;5.20;;;;;;;0.29;85.84;101467.06;4969699;28;20061;-54
2021/01/07 09:33:30;;;;;;;17.63;9.90;;;;;;;0.33;85.72;101470.09;4974409;28;20077;-53
2021/01/07 09:35:56;;;;;;;8.57;4.90;;;;;;;0.33;85.86;101467.38;4976637;28;20050;-51
2021/01/07 09:38:24;;;;;;;14.65;8.15;;;;;;;0.35;86.12;101467.91;4973803;28;20078;-53
2021/01/07 09:40:50;;;;;;;15.07;8.20;;;;;;;0.35;85.82;101468.75;4972544;28;20485;-53
2021/01/07 09:43:16;;;;;;;8.02;4.65;;;;;;;0.33;86.15;101476.38;4986491;28;20054;-49
2021/01/07 09:45:43;;;;;;;9.25;4.60;;;;;;;0.34;86.12;101467.13;4985271;28;20043;-51
2021/01/07 09:48:09;;;;;;;11.30;6.15;;;;;;;0.36;86.05;101469.56;4974848;28;20046;-49
2021/01/07 09:50:36;;;;;;;11.18;6.10;;;;;;;0.38;85.86;101472.84;4971999;28;20057;-53
2021/01/07 09:53:02;;;;;;;9.60;5.60;;;;;;;0.41;86.02;101473.16;4961174;28;20050;-50
2021/01/07 09:55:33;;;;;;;10.80;5.63;;;;;;;0.40;85.77;101482.41;4971710;28;20137;-52
2021/01/07 09:57:59;;;;;;;8.73;5.13;;;;;;;0.38;85.97;101481.84;4984431;28;20066;-50
2021/01/07 10:00:25;;;;;;;8.07;5.00;;;;;;;0.39;86.15;101480.78;4980365;28;20054;-53
2021/01/07 10:02:52;;;;;;;9.07;5.13;;;;;;;0.39;85.91;101479.97;4990578;28;20042;-50
2021/01/07 10:05:18;;;;;;;9.63;6.32;;;;;;;0.41;85.98;101484.06;4977217;28;20839;-54
2021/01/07 10:07:45;;;;;;;9.13;6.22;;;;;;;0.44;85.82;101485.44;4969710;28;20035;-50
2021/01/07 10:10:11;;;;;;;12.38;6.60;;;;;;;0.47;85.94;101483.03;4992128;28;20073;-52
2021/01/07 10:12:38;;;;;;;14.75;8.15;;;;;;;0.52;85.54;101480.34;4985957;28;20081;-51
2021/01/07 10:15:05;;;;;;;11.95;5.90;;;;;;;0.53;86.02;101476.53;4974559;28;20050;-52
2021/01/07 10:17:31;;;;;;;8.50;5.32;;;;;;;0.59;85.64;101477.38;4987047;28;20065;-53
2021/01/07 10:19:58;;;;;;;9.43;5.95;;;;;;;0.62;85.71;101479.59;4990387;28;20129;-52
2021/01/07 10:22:30;;;;;;;10.45;5.88;;;;;;;0.67;85.56;101476.06;4984156;28;20045;-51
2021/01/07 10:24:57;;;;;;;10.07;6.28;;;;;;;0.68;85.71;101472.28;4972098;28;20106;-49
2021/01/07 10:27:24;;;;;;;11.65;5.82;;;;;;;0.69;85.53;101468.47;4973980;28;20054;-49
2021/01/07 10:29:50;;;;;;;14.95;9.68;;;;;;;0.69;85.36;101473.94;4988235;28;20129;-53
2021/01/07 10:32:18;;;;;;;12.25;6.18;;;;;;;0.66;85.34;101469.00;4977595;28;20096;-49
2021/01/07 10:34:47;;;;;;;7.35;4.15;;;;;;;0.57;85.60;101483.09;4956999;28;20042;-53
2021/01/07 10:37:17;;;;;;;11.40;5.85;;;;;;;0.53;85.79;101473.78;4978862;28;20571;-50
2021/01/07 10:39:45;;;;;;;9.68;5.82;;;;;;;0.52;85.47;101463.16;4972188;28;20098;-49
2021/01/07 10:42:13;;;;;;;11.70;6.28;;;;;;;0.51;85.76;101470.50;4982708;28;20473;-49
2021/01/07 10:44:41;;;;;;;13.05;6.38;;;;;;;0.48;85.61;101462.03;4971830;28;20055;-52
2021/01/07 10:47:09;;;;;;;15.30;8.52;;;;;;;0.48;85.65;101457.41;4978711;28;20101;-49
2021/01/07 10:49:37;;;;;;;13.95;7.65;;;;;;;0.53;85.85;101476.53;4983169;28;20104;-52
2021/01/07 10:52:10;;;;;;;16.98;8.05;;;;;;;0.57;85.77;101466.75;4972419;28;20468;-51
2021/01/07 10:54:48;;;;;;;15.80;8.80;;;;;;;0.55;86.14;101466.19;4970217;28;20043;-52
2021/01/07 10:57:34;;;;;;;14.60;8.75;;;;;;;0.59;85.91;101470.03;4976206;28;20043;-49
2021/01/07 11:00:18;;;;;;;14.43;9.32;;;;;;;0.60;86.04;101468.97;4982711;28;20074;-52
2021/01/07 11:03:13;;;;;;;16.98;9.35;;;;;;;0.64;86.23;101468.44;4980873;28;20832;-55
2021/01/07 11:05:45;;;;;;;18.38;9.25;;;;;;;0.69;86.03;101461.09;4973950;28;20057;-50
2021/01/07 11:08:33;;;;;;;16.77;8.85;;;;;;;0.70;85.95;101464.66;4984796;28;20046;-50
2021/01/07 11:11:06;;;;;;;15.15;10.43;;;;;;;0.70;86.09;101459.19;4982914;28;20053;-50
2021/01/07 11:13:39;;;;;;;24.45;11.48;;;;;;;0.72;85.90;101457.03;4970306;28;20130;-48
2021/01/07 11:16:16;;;;;;;16.77;10.18;;;;;;;0.83;85.96;101447.84;4971155;28;20046;-52
2021/01/07 11:18:49;;;;;;;19.42;11.38;;;;;;;0.93;86.02;101458.78;4990154;28;20397;-53
2021/01/07 11:21:23;;;;;;;26.17;13.43;;;;;;;1.00;86.11;101437.59;4973998;28;20099;-53
2021/01/07 11:23:50;;;;;;;26.25;12.18;;;;;;;1.00;85.94;101452.03;4990297;28;20445;-56
2021/01/07 11:26:17;;;;;;;20.20;12.15;;;;;;;0.99;85.80;101442.22;4972280;28;20408;-55
2021/01/07 11:28:44;;;;;;;23.27;12.35;;;;;;;0.97;85.88;101441.66;4957945;28;20046;-53